Jump to content


SOUTHWEST AIRLINES FLIGHT WN4125 FLOWN ON 08-05-2017 BY CAPTAIN TYLER HANUS

Pilot StatsCaptain Tyler Hanus (LDP525) • 244.8 total hours • 53 total flights [View Logbook]
FLIGHT DETAILS
StatusReceived and approved on 2017-08-04 at 23:08:28
Origin AirportGen Mitchell Intl (KMKE) • Milwaukee, Wisconsin, United States (723 feet MSL)
Filed Flight PlanFLIGHT PLANNER OFFLINE
Destination AirportDenver Intl (KDEN) • Denver, Colorado, United States (5,430 feet MSL)
Alternate AirportNone Filed
AirlineSouthwest Airlines
AircraftBoeing 737-800 | Winglets (73H / B737-800)
FS Aircraft UsedBoeing 737-8H4NGX Southwest Airlines (Warrior One) Winglets
Cruising AltitudeFL360
Distance Flown776 nautical miles
Passengers Onboard125 passengers (77.16% full)
DEPARTURE DETAILS
Time Out20:25:03
Taxi Data140,775 lbs total with 20,372 lbs of fuel onboard
Takeoff Data20:37:01 (12 minutes after leaving gate/ramp) • 140,262 lbs total • 8° pitch at 156 knots
Departure METARKMKE 042352Z 30009KT 10SM FEW037 FEW065 SCT085 BKN250 19/11 A2993 RMK AO2 SLP133 60000 T01940106 10200 20161 51012 $
ARRIVAL DETAILS
Landing Data21:46:58 • 127,269 lbs total • 1° pitch doing 133 knots at a rate of -196.08 feet/minute with 6,632 lbs of fuel onboard
Time In21:53:00 (6 minutes after landing)
Ramp Weight127,035 lbs total
Total Fuel Used13,740 lbs
Total Block Time02:22:46 (2.4 hours) while 18 minutes were spent on the ground
Arrival METARKDEN 050318Z 09007KT 10SM FEW060 BKN120 BKN220 20/09 A3004 RMK AO2 WSHFT 0258 LTG DSNT SE OCNL LTG DSNT SE CB DSNT SE MOV E T02000094 $
MISCELLANEOUS DETAILS
LiveDISPATCH Version4.8.3.1
FS Version
FSUIPC Version4.96
OS VersionWindows 7 32-bit
Screen Resolution1360 x 768
Pilot's CommentsNo Comments Reported
FLIGHT MAP